Time;durP1;ratioP1;P1;durP2;ratioP2;P2;SDS_P1;SDS_P2;PMS_P1;PMS_P2;Temp;Humidity;BMP_temperature;BMP_pressure;BME280_temperature;BME280_humidity;BME280_pressure;Samples;Min_cycle;Max_cycle;Signal;HPM_P1;HPM_P2
2024/01/17 00:01:22;;;;;;;8.48;6.43;;;-6.80;99.90;;;;;;5049615;28;20234;-64
2024/01/17 00:03:49;;;;;;;6.85;6.32;;;-6.70;99.90;;;;;;5045727;28;20647;-64
2024/01/17 00:06:16;;;;;;;6.93;6.22;;;-6.70;99.90;;;;;;5052426;28;20233;-64
2024/01/17 00:08:43;;;;;;;8.15;7.32;;;-6.70;99.90;;;;;;5052742;28;20237;-64
2024/01/17 00:11:11;;;;;;;5.88;4.70;;;-6.70;99.90;;;;;;5052330;28;20784;-63
2024/01/17 00:13:39;;;;;;;8.82;6.25;;;-6.70;99.90;;;;;;5048268;28;20297;-63
2024/01/17 00:16:06;;;;;;;7.75;5.78;;;-6.70;99.90;;;;;;5049417;28;20749;-63
2024/01/17 00:18:33;;;;;;;7.75;5.53;;;-6.60;99.90;;;;;;5052584;28;20264;-64
2024/01/17 00:21:00;;;;;;;11.77;6.38;;;-6.60;99.90;;;;;;5052320;28;20603;-64
2024/01/17 00:23:26;;;;;;;7.18;5.40;;;-6.60;99.90;;;;;;5048643;28;20203;-64
2024/01/17 00:25:53;;;;;;;8.02;7.43;;;-6.60;99.90;;;;;;5052791;28;20209;-64
2024/01/17 00:28:20;;;;;;;7.65;6.63;;;-6.60;99.90;;;;;;5052729;28;20297;-64
2024/01/17 00:30:48;;;;;;;11.52;7.00;;;-6.60;99.90;;;;;;5052095;28;20302;-63
2024/01/17 00:33:15;;;;;;;8.80;7.35;;;-6.60;99.90;;;;;;5047946;28;20237;-64
2024/01/17 00:35:42;;;;;;;17.48;5.82;;;-6.60;99.90;;;;;;5047845;28;20907;-63
2024/01/17 00:38:09;;;;;;;8.23;6.25;;;-6.60;99.90;;;;;;5051413;28;20226;-64
2024/01/17 00:40:36;;;;;;;8.32;7.53;;;-6.60;99.90;;;;;;5049715;28;20300;-64
2024/01/17 00:43:03;;;;;;;7.65;6.93;;;-6.60;99.90;;;;;;5052368;28;20218;-64
2024/01/17 00:45:30;;;;;;;8.63;5.68;;;-6.60;99.90;;;;;;5052658;28;20206;-64
2024/01/17 00:47:58;;;;;;;8.15;6.35;;;-6.60;99.90;;;;;;5052692;28;20599;-63
2024/01/17 00:50:25;;;;;;;7.78;6.13;;;-6.60;99.90;;;;;;5053112;28;20290;-64
2024/01/17 00:52:52;;;;;;;5.55;5.07;;;-6.60;99.90;;;;;;5053146;28;20230;-63
2024/01/17 00:55:19;;;;;;;6.85;6.18;;;-6.60;99.90;;;;;;5052660;28;20806;-64
2024/01/17 00:57:46;;;;;;;8.00;7.20;;;-6.60;99.90;;;;;;5053217;28;20230;-63
2024/01/17 01:00:13;;;;;;;9.65;6.97;;;-6.60;99.90;;;;;;5052977;28;20619;-63
2024/01/17 01:02:42;;;;;;;10.15;7.55;;;-6.60;99.90;;;;;;5052765;28;20228;-62
2024/01/17 01:05:12;;;;;;;8.75;6.45;;;-6.60;99.90;;;;;;5053092;28;20210;-63
2024/01/17 01:07:39;;;;;;;8.00;6.85;;;-6.60;99.90;;;;;;5052605;28;20244;-64
2024/01/17 01:10:06;;;;;;;13.73;7.00;;;-6.60;99.90;;;;;;5052486;28;20587;-63
2024/01/17 01:12:33;;;;;;;8.18;7.38;;;-6.60;99.90;;;;;;5052144;28;20233;-64
2024/01/17 01:15:00;;;;;;;7.78;7.07;;;-6.60;99.90;;;;;;5052484;28;20831;-64
2024/01/17 01:17:27;;;;;;;9.13;7.68;;;-6.50;99.90;;;;;;5052350;28;20206;-64
2024/01/17 01:19:55;;;;;;;6.22;5.68;;;-6.50;99.90;;;;;;5053238;28;20297;-64
2024/01/17 01:22:23;;;;;;;6.88;6.25;;;-6.50;99.90;;;;;;5052334;28;20234;-64
2024/01/17 01:24:50;;;;;;;6.05;5.32;;;-6.50;99.90;;;;;;5052023;28;20293;-64
2024/01/17 01:27:17;;;;;;;6.10;5.63;;;-6.50;99.90;;;;;;5052405;28;20230;-64
2024/01/17 01:29:44;;;;;;;5.88;5.38;;;-6.50;99.90;;;;;;5051196;28;20673;-63
2024/01/17 01:32:11;;;;;;;7.18;6.28;;;-6.60;99.90;;;;;;5050992;28;20230;-63
2024/01/17 01:34:38;;;;;;;6.07;5.53;;;-6.60;99.90;;;;;;5052149;28;20695;-64
2024/01/17 01:37:05;;;;;;;9.05;6.32;;;-6.60;99.90;;;;;;5052215;28;20595;-63
2024/01/17 01:39:33;;;;;;;7.57;5.57;;;-6.60;99.90;;;;;;5051927;28;20206;-64
2024/01/17 01:42:00;;;;;;;6.90;6.28;;;-6.60;99.90;;;;;;5051333;28;20240;-64
2024/01/17 01:44:27;;;;;;;9.98;7.25;;;-6.60;99.90;;;;;;5052069;28;20213;-63
2024/01/17 01:46:55;;;;;;;6.63;5.82;;;-6.60;99.90;;;;;;5051859;28;20238;-64
2024/01/17 01:49:21;;;;;;;7.35;6.05;;;-6.60;99.90;;;;;;5052138;28;20324;-64
2024/01/17 01:51:50;;;;;;;10.82;5.65;;;-6.60;99.90;;;;;;5051251;28;20317;-64
2024/01/17 01:54:21;;;;;;;8.30;7.50;;;-6.60;99.90;;;;;;5052137;28;20294;-63
2024/01/17 01:56:51;;;;;;;6.13;5.50;;;-6.60;99.90;;;;;;5051704;28;20293;-64
2024/01/17 01:59:19;;;;;;;5.47;5.07;;;-6.60;99.90;;;;;;5052618;28;20292;-63
2024/01/17 02:01:46;;;;;;;7.90;7.20;;;-6.60;99.90;;;;;;5051816;28;20234;-63
2024/01/17 02:04:13;;;;;;;7.65;6.35;;;-6.70;99.90;;;;;;5052044;28;20228;-64
2024/01/17 02:06:42;;;;;;;8.52;4.65;;;-6.60;99.90;;;;;;5050058;28;20236;-64
2024/01/17 02:09:09;;;;;;;8.00;5.18;;;-6.70;99.90;;;;;;5051639;28;20578;-64
2024/01/17 02:11:37;;;;;;;6.82;5.50;;;-6.70;99.90;;;;;;5050567;28;20226;-64
2024/01/17 02:14:05;;;;;;;7.47;5.53;;;-6.70;99.90;;;;;;5050537;28;20210;-63
2024/01/17 02:16:33;;;;;;;9.38;5.93;;;-6.70;99.90;;;;;;5051205;28;20207;-64
2024/01/17 02:19:00;;;;;;;7.07;5.95;;;-6.70;99.90;;;;;;5051190;28;20662;-63
2024/01/17 02:21:29;;;;;;;8.10;5.90;;;-6.70;99.90;;;;;;5050719;28;20305;-64
2024/01/17 02:24:14;;;;;;;6.45;5.68;;;-6.70;99.90;;;;;;5051389;28;20206;-63
2024/01/17 02:26:41;;;;;;;8.43;6.80;;;-6.80;99.90;;;;;;5051635;28;20206;-64
2024/01/17 02:29:08;;;;;;;10.65;6.28;;;-6.80;99.90;;;;;;5050655;28;20202;-64
2024/01/17 02:31:35;;;;;;;7.20;6.60;;;-6.80;99.90;;;;;;5051018;28;20230;-63
2024/01/17 02:34:03;;;;;;;6.93;6.13;;;-6.80;99.90;;;;;;5052020;28;20297;-63
2024/01/17 02:36:30;;;;;;;6.40;5.80;;;-6.80;99.90;;;;;;5051742;28;20305;-63
2024/01/17 02:38:58;;;;;;;7.90;6.45;;;-6.80;99.90;;;;;;5051953;28;20594;-64
2024/01/17 02:41:25;;;;;;;6.50;5.88;;;-6.90;99.90;;;;;;5051544;28;20615;-63
2024/01/17 02:43:52;;;;;;;9.63;6.70;;;-6.90;99.90;;;;;;5051901;28;20202;-63
2024/01/17 02:46:19;;;;;;;7.65;7.00;;;-6.90;99.90;;;;;;5050675;28;20206;-64
2024/01/17 02:48:46;;;;;;;11.50;7.28;;;-6.90;99.90;;;;;;5050338;28;20316;-63
2024/01/17 02:51:12;;;;;;;7.13;5.78;;;-6.90;99.90;;;;;;5050147;28;20225;-64
2024/01/17 02:53:39;;;;;;;7.35;6.38;;;-7.00;99.90;;;;;;5052194;28;20202;-64
2024/01/17 02:56:08;;;;;;;6.90;6.30;;;-7.00;99.90;;;;;;5055751;28;20619;-63
2024/01/17 02:58:35;;;;;;;7.38;6.68;;;-7.00;99.90;;;;;;5055159;28;20673;-64
2024/01/17 03:01:02;;;;;;;7.80;6.30;;;-7.00;99.90;;;;;;5055111;28;20226;-64
2024/01/17 03:03:29;;;;;;;9.50;4.10;;;-7.00;99.90;;;;;;5055303;28;20298;-64
2024/01/17 03:05:56;;;;;;;5.07;4.40;;;-7.10;99.90;;;;;;5055239;28;20217;-64
2024/01/17 03:08:23;;;;;;;5.82;5.18;;;-7.10;99.90;;;;;;5054799;28;20708;-63
2024/01/17 03:10:50;;;;;;;7.78;4.90;;;-7.10;99.90;;;;;;5055000;28;20210;-64
2024/01/17 03:13:18;;;;;;;5.97;5.15;;;-7.10;99.90;;;;;;5055402;28;20275;-63
2024/01/17 03:15:45;;;;;;;5.60;5.13;;;-7.10;99.90;;;;;;5054877;28;20568;-64
2024/01/17 03:18:13;;;;;;;5.00;4.60;;;-7.10;99.90;;;;;;5055121;28;20224;-64
2024/01/17 03:20:40;;;;;;;6.72;5.50;;;-7.10;99.90;;;;;;5054324;28;20220;-64
2024/01/17 03:23:07;;;;;;;8.98;5.47;;;-7.10;99.90;;;;;;5054740;28;20206;-63
2024/01/17 03:25:34;;;;;;;6.32;5.72;;;-7.10;99.90;;;;;;5054816;28;20580;-64
2024/01/17 03:28:01;;;;;;;9.55;7.00;;;-7.10;99.90;;;;;;5054472;28;20234;-64
2024/01/17 03:30:30;;;;;;;8.25;6.45;;;-7.10;99.90;;;;;;5054794;28;20288;-63
2024/01/17 03:32:57;;;;;;;9.52;6.43;;;-7.20;99.90;;;;;;5054996;28;20226;-63
2024/01/17 03:35:24;;;;;;;8.57;7.28;;;-7.10;99.90;;;;;;5055143;28;20232;-64
2024/01/17 03:37:51;;;;;;;7.38;6.70;;;-7.10;99.90;;;;;;5054959;28;20619;-63
2024/01/17 03:40:17;;;;;;;10.45;7.28;;;-7.10;99.90;;;;;;5054836;28;20207;-64
2024/01/17 03:42:44;;;;;;;11.70;5.97;;;-7.10;99.90;;;;;;5071964;22;20254;-61
2024/01/17 03:45:12;;;;;;;8.07;6.60;;;-7.10;99.90;;;;;;5035149;28;20211;-61
2024/01/17 03:47:41;;;;;;;8.73;4.90;;;-7.10;99.90;;;;;;5034691;28;20318;-62
2024/01/17 03:50:09;;;;;;;8.25;6.18;;;-7.10;99.90;;;;;;5039138;28;20217;-62
2024/01/17 03:52:36;;;;;;;8.07;6.05;;;-7.10;99.90;;;;;;5038709;28;20607;-61
2024/01/17 03:55:02;;;;;;;9.73;6.07;;;-7.10;99.90;;;;;;5054578;28;20210;-61
2024/01/17 03:57:29;;;;;;;6.78;6.15;;;-7.10;99.90;;;;;;5054471;28;20293;-62
2024/01/17 03:59:56;;;;;;;8.52;7.65;;;-7.10;99.90;;;;;;5054421;28;20672;-62
2024/01/17 04:02:23;;;;;;;9.90;7.38;;;-7.10;99.90;;;;;;5054194;28;20222;-61
2024/01/17 04:04:51;;;;;;;7.55;6.72;;;-7.10;99.90;;;;;;5058693;28;20288;-62
2024/01/17 04:07:20;;;;;;;7.03;5.22;;;-7.10;99.90;;;;;;5054598;28;20223;-60
2024/01/17 04:09:47;;;;;;;7.22;6.25;;;-7.10;99.90;;;;;;5052914;28;20203;-61
2024/01/17 04:12:14;;;;;;;7.43;4.88;;;-7.10;99.90;;;;;;5054231;28;20237;-61
2024/01/17 04:14:41;;;;;;;7.25;5.03;;;-7.10;99.90;;;;;;5054423;28;20320;-61
2024/01/17 04:17:11;;;;;;;8.52;5.75;;;-7.10;99.90;;;;;;5054624;28;20210;-61
2024/01/17 04:19:37;;;;;;;11.93;7.35;;;-7.10;99.90;;;;;;5054391;28;20218;-62
2024/01/17 04:22:06;;;;;;;8.63;5.07;;;-7.10;99.90;;;;;;5054622;28;20745;-59
2024/01/17 04:24:32;;;;;;;8.98;4.50;;;-7.10;99.90;;;;;;5054424;28;20298;-61
2024/01/17 04:26:59;;;;;;;8.95;4.55;;;-7.10;99.90;;;;;;5054092;28;20202;-61
2024/01/17 04:29:26;;;;;;;5.75;5.28;;;-7.10;99.90;;;;;;5053998;28;20203;-61
2024/01/17 04:31:53;;;;;;;6.72;6.13;;;-7.10;99.90;;;;;;5053759;28;20226;-62
2024/01/17 04:34:20;;;;;;;8.43;5.75;;;-7.10;99.90;;;;;;5054303;28;20592;-61
2024/01/17 04:36:47;;;;;;;8.55;7.00;;;-7.10;99.90;;;;;;5057605;28;20207;-61
2024/01/17 04:39:16;;;;;;;7.60;6.93;;;-7.10;99.90;;;;;;5054083;28;20206;-61
2024/01/17 04:41:43;;;;;;;11.13;7.97;;;-7.10;99.90;;;;;;5054158;28;20246;-61
2024/01/17 04:44:10;;;;;;;11.20;8.98;;;-7.10;99.90;;;;;;5053698;28;20206;-61
2024/01/17 04:46:38;;;;;;;13.20;7.53;;;-7.10;99.90;;;;;;5054159;28;20210;-61
2024/01/17 04:49:06;;;;;;;8.57;7.72;;;-7.10;99.90;;;;;;5053743;28;20803;-61
2024/01/17 04:51:32;;;;;;;9.80;8.57;;;-7.10;99.90;;;;;;5053829;28;20676;-62
2024/01/17 04:53:59;;;;;;;9.65;8.02;;;-7.10;99.90;;;;;;5053799;28;20296;-61
2024/01/17 04:56:27;;;;;;;7.75;6.25;;;-7.10;99.90;;;;;;5053905;28;20301;-61
2024/01/17 04:58:54;;;;;;;6.43;4.90;;;-7.10;99.90;;;;;;5053814;28;20237;-61
2024/01/17 05:01:21;;;;;;;6.75;5.55;;;-7.10;99.90;;;;;;5053492;28;20242;-61
2024/01/17 05:03:48;;;;;;;5.18;4.70;;;-7.10;99.90;;;;;;5053901;28;20297;-61
2024/01/17 05:06:15;;;;;;;5.40;4.90;;;-7.00;99.90;;;;;;5053507;28;20680;-61
2024/01/17 05:08:42;;;;;;;5.22;4.82;;;-7.00;99.90;;;;;;5053557;28;20232;-61
2024/01/17 05:11:09;;;;;;;6.35;4.57;;;-7.00;99.90;;;;;;5052726;28;20202;-61
2024/01/17 05:13:39;;;;;;;6.82;6.25;;;-7.00;99.90;;;;;;5053689;28;20297;-62
2024/01/17 05:16:06;;;;;;;10.48;6.10;;;-7.00;99.90;;;;;;5052642;28;20695;-62
2024/01/17 05:18:33;;;;;;;6.50;6.00;;;-7.00;99.90;;;;;;5053870;28;20246;-62
2024/01/17 05:21:00;;;;;;;7.53;5.78;;;-6.90;99.90;;;;;;5053810;28;20588;-61
2024/01/17 05:23:27;;;;;;;6.30;5.70;;;-6.90;99.90;;;;;;5053040;28;20249;-61
2024/01/17 05:25:54;;;;;;;5.32;4.78;;;-6.80;99.90;;;;;;5053173;28;20239;-61
2024/01/17 05:28:20;;;;;;;8.70;6.20;;;-6.80;99.90;;;;;;5053022;28;20723;-62
2024/01/17 05:30:49;;;;;;;5.65;5.15;;;-6.70;99.90;;;;;;5053173;28;20206;-61
2024/01/17 05:33:16;;;;;;;7.50;6.00;;;-6.70;99.90;;;;;;5053036;28;20226;-61
2024/01/17 05:35:43;;;;;;;7.95;4.88;;;-6.70;99.90;;;;;;5053213;28;20210;-60
2024/01/17 05:38:10;;;;;;;8.80;5.50;;;-6.60;99.90;;;;;;5052738;28;20226;-61
2024/01/17 05:40:36;;;;;;;5.97;5.40;;;-6.60;99.90;;;;;;5052435;28;20210;-61
2024/01/17 05:43:04;;;;;;;7.68;6.07;;;-6.50;99.90;;;;;;5052743;28;20240;-62
2024/01/17 05:45:31;;;;;;;8.20;7.40;;;-6.50;99.90;;;;;;5052897;28;20293;-61
2024/01/17 05:47:59;;;;;;;8.40;6.13;;;-6.40;99.90;;;;;;5055725;28;20610;-62
2024/01/17 05:50:26;;;;;;;10.07;6.55;;;-6.40;99.90;;;;;;5052580;28;20209;-62
2024/01/17 05:52:53;;;;;;;6.47;5.82;;;-6.30;99.90;;;;;;5051590;28;20218;-60
2024/01/17 05:55:20;;;;;;;8.90;6.68;;;-6.30;99.90;;;;;;5052232;28;20206;-62
2024/01/17 05:57:47;;;;;;;11.95;6.88;;;-6.20;99.90;;;;;;5050990;28;20201;-62
2024/01/17 06:00:15;;;;;;;6.68;5.68;;;-6.10;99.90;;;;;;5051144;28;20202;-62
2024/01/17 06:02:43;;;;;;;7.07;5.60;;;-6.10;99.90;;;;;;5051979;28;20226;-61
2024/01/17 06:05:12;;;;;;;7.55;6.03;;;-6.00;99.90;;;;;;5049546;28;20228;-62
2024/01/17 06:07:40;;;;;;;8.40;6.78;;;-6.00;99.90;;;;;;5042574;28;20206;-62
2024/01/17 06:10:08;;;;;;;9.23;5.22;;;-6.00;99.90;;;;;;5051945;28;20210;-61
2024/01/17 06:12:35;;;;;;;7.95;7.05;;;-6.00;99.90;;;;;;5051829;28;20241;-62
2024/01/17 06:15:02;;;;;;;7.20;6.60;;;-6.00;99.90;;;;;;5051709;28;20206;-62
2024/01/17 06:17:28;;;;;;;9.07;6.63;;;-5.90;99.90;;;;;;5038140;28;20210;-62
2024/01/17 06:19:55;;;;;;;6.30;5.80;;;-5.90;99.90;;;;;;5051094;28;20202;-62
2024/01/17 06:22:24;;;;;;;6.95;6.13;;;-5.80;99.90;;;;;;5051685;28;20222;-61
2024/01/17 06:24:51;;;;;;;11.75;9.40;;;-5.80;99.90;;;;;;5051822;28;20238;-62
2024/01/17 06:27:18;;;;;;;12.70;7.22;;;-5.70;99.90;;;;;;5051700;28;20261;-61
2024/01/17 06:29:45;;;;;;;8.80;6.25;;;-5.70;99.90;;;;;;5051151;28;20228;-62
2024/01/17 06:32:13;;;;;;;8.40;6.82;;;-5.70;99.90;;;;;;5051976;28;20230;-62
2024/01/17 06:34:40;;;;;;;8.43;6.65;;;-5.70;99.90;;;;;;5051716;28;20298;-62
2024/01/17 06:37:06;;;;;;;7.22;6.47;;;-5.70;99.90;;;;;;5052169;28;20638;-62
2024/01/17 06:39:35;;;;;;;6.53;5.93;;;-5.60;99.90;;;;;;5051790;28;20205;-62
2024/01/17 06:42:02;;;;;;;7.30;6.70;;;-5.60;99.90;;;;;;5051741;28;20256;-62
2024/01/17 06:44:29;;;;;;;11.52;7.40;;;-5.60;99.90;;;;;;5051592;28;20202;-62
2024/01/17 06:46:56;;;;;;;9.05;8.25;;;-5.50;99.90;;;;;;5051621;28;20198;-61
2024/01/17 06:49:23;;;;;;;8.07;6.60;;;-5.50;99.90;;;;;;5051218;28;20233;-62
2024/01/17 06:51:50;;;;;;;11.98;7.38;;;-5.40;99.90;;;;;;5051331;28;20314;-61
2024/01/17 06:54:16;;;;;;;8.00;7.20;;;-5.40;99.90;;;;;;5051258;28;20297;-62
2024/01/17 06:56:45;;;;;;;9.40;7.47;;;-5.30;99.90;;;;;;5051238;28;20293;-62
2024/01/17 06:59:12;;;;;;;13.00;9.10;;;-5.30;99.90;;;;;;5051099;28;20198;-62
2024/01/17 07:01:40;;;;;;;10.18;9.23;;;-5.30;99.90;;;;;;5050791;28;20329;-62
2024/01/17 07:04:07;;;;;;;12.52;8.30;;;-5.20;99.90;;;;;;5051126;28;20207;-63
2024/01/17 07:06:33;;;;;;;10.88;8.15;;;-5.20;99.90;;;;;;5051423;28;20202;-62
2024/01/17 07:09:00;;;;;;;12.57;8.45;;;-5.20;99.90;;;;;;5051114;28;20225;-62
2024/01/17 07:11:27;;;;;;;9.38;7.80;;;-5.10;99.90;;;;;;5050858;28;20213;-62
2024/01/17 07:13:55;;;;;;;9.80;8.15;;;-5.10;99.90;;;;;;5050955;28;20668;-62
2024/01/17 07:16:22;;;;;;;7.40;6.68;;;-5.10;99.90;;;;;;5050737;28;20586;-62
2024/01/17 07:18:49;;;;;;;10.10;9.07;;;-5.00;99.90;;;;;;5051429;28;20209;-62
2024/01/17 07:21:16;;;;;;;10.30;9.20;;;-4.90;99.90;;;;;;5050779;28;20684;-62
2024/01/17 07:23:43;;;;;;;11.93;8.50;;;-4.90;99.90;;;;;;5043780;28;20210;-62
2024/01/17 07:26:10;;;;;;;8.30;6.72;;;-4.80;99.90;;;;;;5051235;28;20238;-62
2024/01/17 07:28:37;;;;;;;10.07;8.68;;;-4.80;99.90;;;;;;5039328;28;20611;-62
2024/01/17 07:31:05;;;;;;;8.63;7.82;;;-4.80;99.90;;;;;;5046867;28;20251;-62
2024/01/17 07:33:33;;;;;;;14.25;10.10;;;-4.70;99.90;;;;;;5049953;28;20280;-61
2024/01/17 07:36:00;;;;;;;12.13;7.78;;;-4.70;99.90;;;;;;5051263;28;20237;-62
2024/01/17 07:38:26;;;;;;;13.40;7.75;;;-4.70;99.90;;;;;;5051171;28;20297;-62
2024/01/17 07:40:54;;;;;;;9.15;8.32;;;-4.60;99.90;;;;;;5054389;28;20207;-61
2024/01/17 07:43:20;;;;;;;12.57;8.18;;;-4.60;99.90;;;;;;5054583;28;20246;-61
2024/01/17 07:45:47;;;;;;;10.40;8.98;;;-4.50;99.90;;;;;;5055052;28;20640;-61
2024/01/17 07:48:16;;;;;;;9.20;8.48;;;-4.50;99.90;;;;;;5054820;28;20297;-62
2024/01/17 07:50:43;;;;;;;17.50;10.48;;;-4.40;99.90;;;;;;5054896;28;20214;-61
2024/01/17 07:53:11;;;;;;;16.85;13.15;;;-4.30;99.90;;;;;;5054832;28;20226;-62
2024/01/17 07:55:39;;;;;;;15.43;10.48;;;-4.30;99.90;;;;;;5054740;28;20257;-62
2024/01/17 07:58:06;;;;;;;14.32;9.75;;;-4.30;99.90;;;;;;5054969;28;20211;-62
2024/01/17 08:00:33;;;;;;;13.27;10.55;;;-4.20;99.90;;;;;;5054417;28;20210;-62
2024/01/17 08:02:59;;;;;;;12.02;10.82;;;-4.10;99.90;;;;;;5054348;28;20234;-61
2024/01/17 08:05:28;;;;;;;12.07;9.80;;;-4.10;99.90;;;;;;5054625;28;20202;-62
2024/01/17 08:07:55;;;;;;;11.07;10.07;;;-4.00;99.90;;;;;;5054557;28;20211;-62
2024/01/17 08:10:22;;;;;;;12.30;11.05;;;-3.90;99.90;;;;;;5054013;28;20234;-61
2024/01/17 08:12:49;;;;;;;14.90;10.80;;;-3.90;99.90;;;;;;5056146;28;20273;-62
2024/01/17 08:15:16;;;;;;;20.42;13.82;;;-3.80;99.90;;;;;;5057573;28;20309;-61
2024/01/17 08:17:44;;;;;;;13.95;11.82;;;-3.70;99.90;;;;;;5062284;28;20695;-62
2024/01/17 08:20:12;;;;;;;16.05;11.85;;;-3.70;99.90;;;;;;5058161;28;20230;-62
2024/01/17 08:22:41;;;;;;;15.90;12.23;;;-3.60;99.90;;;;;;5063591;28;20218;-62
2024/01/17 08:25:09;;;;;;;15.68;11.95;;;-3.60;99.90;;;;;;5053968;28;20210;-62
2024/01/17 08:27:36;;;;;;;13.23;11.65;;;-3.50;99.90;;;;;;5053712;28;20226;-62
2024/01/17 08:30:04;;;;;;;12.52;10.90;;;-3.40;99.90;;;;;;5053737;28;20264;-62
2024/01/17 08:32:31;;;;;;;18.83;13.50;;;-3.30;99.90;;;;;;5053184;28;20222;-62
2024/01/17 08:34:57;;;;;;;17.25;12.15;;;-3.20;99.90;;;;;;5053490;28;20289;-62
2024/01/17 08:37:24;;;;;;;15.57;12.52;;;-3.10;99.90;;;;;;5048987;28;20213;-62
2024/01/17 08:39:53;;;;;;;12.45;11.15;;;-3.10;99.90;;;;;;5048079;28;20195;-62
2024/01/17 08:42:20;;;;;;;13.40;10.55;;;-3.00;99.90;;;;;;5047391;28;20257;-62
2024/01/17 08:44:46;;;;;;;14.82;13.05;;;-2.90;99.90;;;;;;5051537;28;20289;-62
2024/01/17 08:47:13;;;;;;;14.07;12.50;;;-2.80;99.90;;;;;;5052276;28;20233;-62
2024/01/17 08:49:40;;;;;;;18.52;13.00;;;-2.80;99.90;;;;;;5044421;28;20223;-62
2024/01/17 08:52:08;;;;;;;18.38;15.90;;;-2.70;99.90;;;;;;5051948;28;20313;-62
2024/01/17 08:54:35;;;;;;;18.38;15.02;;;-2.60;99.90;;;;;;5052026;28;21495;-62
2024/01/17 08:57:04;;;;;;;17.38;14.27;;;-2.50;99.90;;;;;;5052705;28;20210;-63
2024/01/17 08:59:34;;;;;;;17.90;14.82;;;-2.50;99.90;;;;;;5051189;28;20563;-63
2024/01/17 09:02:01;;;;;;;17.35;15.65;;;-2.40;99.90;;;;;;5052574;28;20692;-62
2024/01/17 09:04:28;;;;;;;20.25;16.58;;;-2.30;99.90;;;;;;5052263;28;20202;-62
2024/01/17 09:06:55;;;;;;;21.92;17.30;;;-2.20;99.90;;;;;;5052628;28;20212;-62
2024/01/17 09:09:24;;;;;;;20.15;16.73;;;-2.20;99.90;;;;;;5051842;28;20226;-62
2024/01/17 09:11:51;;;;;;;20.13;16.45;;;-2.10;99.90;;;;;;5051797;28;20305;-62
2024/01/17 09:14:21;;;;;;;21.88;15.80;;;-2.00;99.90;;;;;;5052140;28;20288;-63
2024/01/17 09:16:50;;;;;;;22.13;17.85;;;-1.90;99.90;;;;;;5052153;28;20202;-62
2024/01/17 09:19:16;;;;;;;21.60;15.85;;;-1.90;99.90;;;;;;5051510;28;20207;-63
2024/01/17 09:21:43;;;;;;;20.55;18.40;;;-1.80;99.90;;;;;;5047206;28;20313;-62
2024/01/17 09:24:10;;;;;;;23.30;20.42;;;-1.80;99.90;;;;;;5050984;28;20300;-62
2024/01/17 09:26:38;;;;;;;25.67;19.17;;;-1.70;99.90;;;;;;5047023;28;20213;-62
2024/01/17 09:29:05;;;;;;;20.45;18.15;;;-1.70;99.90;;;;;;5041772;28;20663;-62
2024/01/17 09:31:33;;;;;;;20.63;16.60;;;-1.60;99.90;;;;;;5048358;28;20641;-62
2024/01/17 09:34:00;;;;;;;21.10;17.55;;;-1.50;99.90;;;;;;5044295;28;20209;-63
2024/01/17 09:36:26;;;;;;;18.15;16.42;;;-1.50;99.90;;;;;;5037549;28;20207;-62
2024/01/17 09:38:53;;;;;;;18.73;16.73;;;-1.40;99.90;;;;;;5049514;28;20212;-62
2024/01/17 09:41:20;;;;;;;17.17;15.43;;;-1.40;99.90;;;;;;5048580;28;20203;-63
2024/01/17 09:43:47;;;;;;;18.33;16.38;;;-1.30;99.90;;;;;;5067499;22;20227;-63
2024/01/17 09:46:15;;;;;;;18.45;14.70;;;-1.30;99.90;;;;;;5047089;28;20217;-64
2024/01/17 09:48:43;;;;;;;21.75;18.17;;;-1.30;99.90;;;;;;5030944;28;20684;-64
2024/01/17 09:51:15;;;;;;;21.63;17.63;;;-1.20;99.90;;;;;;5041628;28;20206;-65
2024/01/17 09:53:45;;;;;;;23.27;17.98;;;-1.20;99.90;;;;;;5040191;28;20249;-65
2024/01/17 09:56:14;;;;;;;25.65;20.10;;;-1.20;99.90;;;;;;5026929;28;20206;-65
2024/01/17 09:58:44;;;;;;;21.17;17.40;;;-1.20;99.90;;;;;;5041623;28;20199;-65
2024/01/17 10:01:14;;;;;;;17.42;15.52;;;-1.10;99.90;;;;;;5030834;28;20234;-65
2024/01/17 10:03:45;;;;;;;22.85;18.65;;;-1.10;99.90;;;;;;5035940;28;20218;-65
2024/01/17 10:06:15;;;;;;;23.00;18.38;;;-1.00;99.90;;;;;;5045739;28;20213;-64
2024/01/17 10:08:43;;;;;;;21.23;17.60;;;-0.90;99.90;;;;;;5042821;28;20298;-65
2024/01/17 10:11:10;;;;;;;22.15;18.65;;;-0.90;99.90;;;;;;5035809;28;20310;-65
2024/01/17 10:13:37;;;;;;;21.70;17.40;;;-0.80;99.90;;;;;;5033784;28;20222;-65
2024/01/17 10:16:04;;;;;;;23.60;18.25;;;-0.80;99.90;;;;;;5040174;28;20222;-64
2024/01/17 10:18:32;;;;;;;28.58;19.85;;;-0.70;99.90;;;;;;5032236;28;20203;-64
2024/01/17 10:21:02;;;;;;;24.92;19.77;;;-0.70;99.90;;;;;;5039524;28;20681;-65
2024/01/17 10:23:29;;;;;;;24.00;19.17;;;-0.60;99.90;;;;;;5032413;28;20223;-65
2024/01/17 10:25:56;;;;;;;23.67;18.73;;;-0.60;99.90;;;;;;5044776;28;20586;-65
2024/01/17 10:28:24;;;;;;;23.20;18.60;;;-0.60;99.90;;;;;;5043743;28;20715;-65
2024/01/17 10:30:51;;;;;;;20.02;16.70;;;-0.50;99.90;;;;;;5030782;28;20222;-65
2024/01/17 10:33:18;;;;;;;22.13;16.67;;;-0.50;99.90;;;;;;5041281;28;20230;-64
2024/01/17 10:35:45;;;;;;;23.50;20.88;;;-0.40;99.90;;;;;;5030738;28;20293;-64
2024/01/17 10:38:13;;;;;;;22.08;19.73;;;-0.40;99.90;;;;;;5040607;28;20663;-64
2024/01/17 10:40:43;;;;;;;21.27;18.50;;;-0.40;99.90;;;;;;5036908;28;20198;-65
2024/01/17 10:43:10;;;;;;;22.50;19.55;;;-0.40;99.90;;;;;;5026966;28;20321;-65
2024/01/17 10:45:39;;;;;;;26.15;19.83;;;-0.40;99.90;;;;;;5036277;28;20215;-65
2024/01/17 10:48:06;;;;;;;24.08;20.70;;;-0.40;99.90;;;;;;5037553;28;20207;-64
2024/01/17 10:50:33;;;;;;;21.70;17.70;;;-0.30;99.90;;;;;;5038698;28;20222;-65
2024/01/17 10:53:04;;;;;;;26.20;21.20;;;-0.30;99.90;;;;;;5044470;28;20589;-64
2024/01/17 10:55:34;;;;;;;21.60;19.40;;;-0.30;99.90;;;;;;5043338;28;20207;-65
2024/01/17 10:58:04;;;;;;;23.88;19.23;;;-0.30;99.90;;;;;;5030735;28;20203;-64
2024/01/17 11:00:32;;;;;;;21.25;19.15;;;-0.30;99.90;;;;;;5041181;28;20202;-65
2024/01/17 11:03:01;;;;;;;23.15;20.38;;;-0.30;99.90;;;;;;5042019;28;20233;-64
2024/01/17 11:05:31;;;;;;;25.00;20.30;;;-0.30;99.90;;;;;;5042579;28;20692;-64
2024/01/17 11:08:00;;;;;;;20.50;18.27;;;-0.30;99.90;;;;;;5030378;28;20199;-64
2024/01/17 11:10:28;;;;;;;25.88;20.75;;;-0.20;99.90;;;;;;5040170;28;20654;-64
2024/01/17 11:12:56;;;;;;;22.08;17.40;;;-0.20;99.90;;;;;;5039373;28;20237;-65
2024/01/17 11:15:26;;;;;;;22.48;20.02;;;-0.10;99.90;;;;;;5034031;28;20675;-64
2024/01/17 11:17:55;;;;;;;26.88;22.23;;;-0.10;99.90;;;;;;5048422;28;20673;-64
2024/01/17 11:20:23;;;;;;;25.85;21.52;;;-0.10;99.90;;;;;;5035622;28;20640;-64
2024/01/17 11:22:51;;;;;;;25.45;21.25;;;-0.10;99.90;;;;;;5039770;28;20371;-65
2024/01/17 11:25:24;;;;;;;25.38;19.65;;;0.00;99.90;;;;;;5047121;28;20206;-64
2024/01/17 11:28:00;;;;;;;25.67;19.25;;;0.00;99.90;;;;;;5045846;28;20216;-64
2024/01/17 11:30:40;;;;;;;22.25;19.35;;;0.10;99.90;;;;;;5031705;28;20227;-65
2024/01/17 11:33:10;;;;;;;25.02;19.67;;;0.00;99.90;;;;;;5046519;28;20245;-64
2024/01/17 11:35:45;;;;;;;25.67;19.98;;;0.10;99.90;;;;;;5035194;28;20272;-64
2024/01/17 11:38:28;;;;;;;21.90;19.52;;;0.10;99.90;;;;;;5034646;28;20207;-64
2024/01/17 11:40:56;;;;;;;22.63;20.25;;;0.10;99.90;;;;;;5038652;28;20286;-65
2024/01/17 11:43:29;;;;;;;29.67;20.55;;;0.10;99.90;;;;;;5050478;28;20238;-64
2024/01/17 11:45:56;;;;;;;23.75;19.05;;;0.10;99.90;;;;;;5038875;28;20211;-64
2024/01/17 11:48:25;;;;;;;27.83;20.35;;;0.10;99.90;;;;;;5047741;28;20206;-64
2024/01/17 11:51:00;;;;;;;22.75;20.35;;;0.10;99.90;;;;;;5049634;28;20310;-64
2024/01/17 11:53:28;;;;;;;25.17;21.45;;;0.10;99.90;;;;;;5044752;28;20225;-64
2024/01/17 11:55:56;;;;;;;27.33;20.95;;;0.10;99.90;;;;;;5043454;28;20230;-63
2024/01/17 11:58:39;;;;;;;23.17;20.23;;;0.20;99.90;;;;;;5034255;28;20210;-64
2024/01/17 12:01:06;;;;;;;22.75;19.55;;;0.20;99.90;;;;;;5042338;28;20622;-63
2024/01/17 12:03:33;;;;;;;24.00;20.67;;;0.20;99.90;;;;;;5033972;28;20605;-63
2024/01/17 12:06:01;;;;;;;21.35;18.92;;;0.30;99.90;;;;;;5043836;28;20203;-64
2024/01/17 12:08:29;;;;;;;25.00;21.80;;;0.30;99.90;;;;;;5041420;28;20227;-63
2024/01/17 12:10:56;;;;;;;25.52;21.08;;;0.30;99.90;;;;;;5041991;28;20305;-64
2024/01/17 12:13:25;;;;;;;23.60;20.48;;;0.30;99.90;;;;;;5047421;28;20236;-64
2024/01/17 12:15:55;;;;;;;26.70;22.67;;;0.30;99.90;;;;;;5037314;28;20209;-63
2024/01/17 12:18:24;;;;;;;22.65;20.30;;;0.40;99.90;;;;;;5033263;28;20211;-63
2024/01/17 12:20:52;;;;;;;20.77;18.58;;;0.40;99.90;;;;;;5039976;28;20199;-63
2024/01/17 12:23:20;;;;;;;25.08;21.02;;;0.40;99.90;;;;;;5038850;28;20258;-64
2024/01/17 12:25:47;;;;;;;28.55;21.48;;;0.40;99.90;;;;;;5033423;28;20207;-64
2024/01/17 12:28:22;;;;;;;31.90;22.75;;;0.40;99.90;;;;;;5023702;28;20249;-63
2024/01/17 12:31:01;;;;;;;23.63;20.48;;;0.40;99.90;;;;;;5025995;28;20718;-64
2024/01/17 12:33:30;;;;;;;25.02;20.30;;;0.40;99.90;;;;;;5031739;28;20230;-63
2024/01/17 12:36:00;;;;;;;23.60;20.02;;;0.50;99.90;;;;;;5027186;28;20206;-64
2024/01/17 12:38:28;;;;;;;23.75;20.80;;;0.50;99.90;;;;;;5024559;28;20211;-64
2024/01/17 12:40:55;;;;;;;31.63;22.73;;;0.50;99.90;;;;;;5029646;28;20219;-64